sensor_id;sensor_type;location;lat;lon;timestamp;pressure;altitude;pressure_sealevel;temperature
64916;BMP280;51427;-27.442;153.014;2023-03-01T00:01:37;100776.22;;;30.86
64916;BMP280;51427;-27.442;153.014;2023-03-01T00:04:04;100766.78;;;31.25
64916;BMP280;51427;-27.442;153.014;2023-03-01T00:06:32;100775.78;;;30.43
64916;BMP280;51427;-27.442;153.014;2023-03-01T00:08:59;100768.16;;;31.15
64916;BMP280;51427;-27.442;153.014;2023-03-01T00:11:29;100763.97;;;31.08
64916;BMP280;51427;-27.442;153.014;2023-03-01T00:13:59;100755.66;;;31.25
64916;BMP280;51427;-27.442;153.014;2023-03-01T00:16:29;100743.78;;;31.88
64916;BMP280;51427;-27.442;153.014;2023-03-01T00:18:57;100749.75;;;31.82
64916;BMP280;51427;-27.442;153.014;2023-03-01T00:21:25;100739.81;;;31.66
64916;BMP280;51427;-27.442;153.014;2023-03-01T00:23:53;100729.75;;;31.06
64916;BMP280;51427;-27.442;153.014;2023-03-01T00:26:25;100741.59;;;31.40
64916;BMP280;51427;-27.442;153.014;2023-03-01T00:28:53;100738.59;;;31.69
64916;BMP280;51427;-27.442;153.014;2023-03-01T00:31:26;100735.69;;;30.93
64916;BMP280;51427;-27.442;153.014;2023-03-01T00:33:55;100731.75;;;31.10
64916;BMP280;51427;-27.442;153.014;2023-03-01T00:36:28;100741.63;;;30.87
64916;BMP280;51427;-27.442;153.014;2023-03-01T00:38:56;100728.63;;;31.72
64916;BMP280;51427;-27.442;153.014;2023-03-01T00:41:24;100737.00;;;32.06
64916;BMP280;51427;-27.442;153.014;2023-03-01T00:43:53;100738.13;;;31.27
64916;BMP280;51427;-27.442;153.014;2023-03-01T00:46:23;100733.00;;;31.40
64916;BMP280;51427;-27.442;153.014;2023-03-01T00:48:51;100731.66;;;30.84
64916;BMP280;51427;-27.442;153.014;2023-03-01T00:51:23;100730.94;;;31.09
64916;BMP280;51427;-27.442;153.014;2023-03-01T00:53:52;100735.91;;;30.52
64916;BMP280;51427;-27.442;153.014;2023-03-01T00:56:20;100735.81;;;31.45
64916;BMP280;51427;-27.442;153.014;2023-03-01T00:58:48;100730.94;;;31.09
64916;BMP280;51427;-27.442;153.014;2023-03-01T01:01:20;100733.81;;;31.66
64916;BMP280;51427;-27.442;153.014;2023-03-01T01:03:53;100720.59;;;32.45
64916;BMP280;51427;-27.442;153.014;2023-03-01T01:06:23;100727.25;;;32.08
64916;BMP280;51427;-27.442;153.014;2023-03-01T01:08:52;100713.69;;;30.63
64916;BMP280;51427;-27.442;153.014;2023-03-01T01:11:21;100702.31;;;31.05
64916;BMP280;51427;-27.442;153.014;2023-03-01T01:13:48;100703.19;;;31.56
64916;BMP280;51427;-27.442;153.014;2023-03-01T01:16:17;100700.91;;;31.02
64916;BMP280;51427;-27.442;153.014;2023-03-01T01:18:45;100694.13;;;30.42
64916;BMP280;51427;-27.442;153.014;2023-03-01T01:21:15;100678.72;;;30.67
64916;BMP280;51427;-27.442;153.014;2023-03-01T01:23:44;100675.91;;;30.50
64916;BMP280;51427;-27.442;153.014;2023-03-01T01:26:15;100671.78;;;30.28
64916;BMP280;51427;-27.442;153.014;2023-03-01T01:28:43;100672.34;;;31.42
64916;BMP280;51427;-27.442;153.014;2023-03-01T01:31:10;100662.38;;;31.13
64916;BMP280;51427;-27.442;153.014;2023-03-01T01:33:37;100661.03;;;30.71
64916;BMP280;51427;-27.442;153.014;2023-03-01T01:36:06;100666.91;;;30.39
64916;BMP280;51427;-27.442;153.014;2023-03-01T01:38:35;100657.69;;;29.90
64916;BMP280;51427;-27.442;153.014;2023-03-01T01:41:03;100654.59;;;30.08
64916;BMP280;51427;-27.442;153.014;2023-03-01T01:43:36;100655.25;;;30.56
64916;BMP280;51427;-27.442;153.014;2023-03-01T01:48:52;100637.13;;;31.54
64916;BMP280;51427;-27.442;153.014;2023-03-01T01:51:27;100643.06;;;30.90
64916;BMP280;51427;-27.442;153.014;2023-03-01T01:54:00;100646.44;;;29.70
64916;BMP280;51427;-27.442;153.014;2023-03-01T01:56:28;100639.97;;;30.55
64916;BMP280;51427;-27.442;153.014;2023-03-01T01:58:56;100641.06;;;30.86
64916;BMP280;51427;-27.442;153.014;2023-03-01T02:01:24;100632.53;;;31.17
64916;BMP280;51427;-27.442;153.014;2023-03-01T02:03:52;100633.72;;;31.28
64916;BMP280;51427;-27.442;153.014;2023-03-01T02:06:21;100630.22;;;30.57
64916;BMP280;51427;-27.442;153.014;2023-03-01T02:08:59;100637.41;;;30.67
64916;BMP280;51427;-27.442;153.014;2023-03-01T02:11:29;100629.34;;;30.37
64916;BMP280;51427;-27.442;153.014;2023-03-01T02:13:58;100624.78;;;29.92
64916;BMP280;51427;-27.442;153.014;2023-03-01T02:16:26;100614.13;;;30.08
64916;BMP280;51427;-27.442;153.014;2023-03-01T02:18:55;100611.47;;;29.95
64916;BMP280;51427;-27.442;153.014;2023-03-01T02:24:49;100599.97;;;30.38
64916;BMP280;51427;-27.442;153.014;2023-03-01T02:27:20;100594.84;;;30.51
64916;BMP280;51427;-27.442;153.014;2023-03-01T02:29:51;100588.00;;;31.09
64916;BMP280;51427;-27.442;153.014;2023-03-01T02:32:20;100581.19;;;30.16
64916;BMP280;51427;-27.442;153.014;2023-03-01T02:34:56;100581.97;;;30.83
64916;BMP280;51427;-27.442;153.014;2023-03-01T02:37:25;100578.78;;;30.09
64916;BMP280;51427;-27.442;153.014;2023-03-01T02:39:59;100574.22;;;30.11
64916;BMP280;51427;-27.442;153.014;2023-03-01T02:42:33;100569.44;;;30.61
64916;BMP280;51427;-27.442;153.014;2023-03-01T02:45:03;100565.09;;;30.08
64916;BMP280;51427;-27.442;153.014;2023-03-01T02:47:31;100566.59;;;29.63
64916;BMP280;51427;-27.442;153.014;2023-03-01T02:49:58;100552.81;;;30.89
64916;BMP280;51427;-27.442;153.014;2023-03-01T02:52:32;100555.94;;;31.36
64916;BMP280;51427;-27.442;153.014;2023-03-01T02:55:12;100544.03;;;31.48
64916;BMP280;51427;-27.442;153.014;2023-03-01T02:57:44;100536.44;;;31.59
64916;BMP280;51427;-27.442;153.014;2023-03-01T03:00:14;100528.16;;;30.86
64916;BMP280;51427;-27.442;153.014;2023-03-01T03:02:48;100527.50;;;31.49
64916;BMP280;51427;-27.442;153.014;2023-03-01T03:05:19;100531.53;;;30.08
64916;BMP280;51427;-27.442;153.014;2023-03-01T03:07:48;100532.69;;;29.66
64916;BMP280;51427;-27.442;153.014;2023-03-01T03:10:30;100504.63;;;30.49
64916;BMP280;51427;-27.442;153.014;2023-03-01T03:13:01;100509.41;;;30.59
64916;BMP280;51427;-27.442;153.014;2023-03-01T03:15:29;100509.03;;;29.89
64916;BMP280;51427;-27.442;153.014;2023-03-01T03:17:58;100502.50;;;30.65
64916;BMP280;51427;-27.442;153.014;2023-03-01T03:20:27;100503.31;;;29.94
64916;BMP280;51427;-27.442;153.014;2023-03-01T03:22:56;100487.41;;;31.01
64916;BMP280;51427;-27.442;153.014;2023-03-01T03:25:26;100498.34;;;29.59
64916;BMP280;51427;-27.442;153.014;2023-03-01T03:27:54;100503.75;;;30.16
64916;BMP280;51427;-27.442;153.014;2023-03-01T03:30:33;100491.59;;;29.58
64916;BMP280;51427;-27.442;153.014;2023-03-01T03:33:01;100481.44;;;29.90
64916;BMP280;51427;-27.442;153.014;2023-03-01T03:35:32;100477.75;;;30.18
64916;BMP280;51427;-27.442;153.014;2023-03-01T03:38:04;100473.44;;;30.63
64916;BMP280;51427;-27.442;153.014;2023-03-01T03:40:44;100477.25;;;30.74
64916;BMP280;51427;-27.442;153.014;2023-03-01T03:43:15;100472.78;;;30.23
64916;BMP280;51427;-27.442;153.014;2023-03-01T03:45:45;100470.69;;;30.78
64916;BMP280;51427;-27.442;153.014;2023-03-01T03:48:13;100465.88;;;29.70
64916;BMP280;51427;-27.442;153.014;2023-03-01T03:50:41;100445.34;;;29.96
64916;BMP280;51427;-27.442;153.014;2023-03-01T03:53:12;100459.88;;;29.64
64916;BMP280;51427;-27.442;153.014;2023-03-01T03:55:40;100447.72;;;29.45
64916;BMP280;51427;-27.442;153.014;2023-03-01T03:58:09;100450.41;;;29.70
64916;BMP280;51427;-27.442;153.014;2023-03-01T04:00:42;100447.22;;;29.68
64916;BMP280;51427;-27.442;153.014;2023-03-01T04:03:11;100440.25;;;30.22
64916;BMP280;51427;-27.442;153.014;2023-03-01T04:05:40;100443.25;;;30.45
64916;BMP280;51427;-27.442;153.014;2023-03-01T04:08:08;100449.63;;;29.76
64916;BMP280;51427;-27.442;153.014;2023-03-01T04:10:41;100445.41;;;30.22
64916;BMP280;51427;-27.442;153.014;2023-03-01T04:13:15;100439.81;;;30.18
64916;BMP280;51427;-27.442;153.014;2023-03-01T04:15:42;100440.06;;;30.23
64916;BMP280;51427;-27.442;153.014;2023-03-01T04:18:13;100440.31;;;29.75
64916;BMP280;51427;-27.442;153.014;2023-03-01T04:20:42;100442.81;;;30.22
64916;BMP280;51427;-27.442;153.014;2023-03-01T04:23:16;100437.84;;;29.21
64916;BMP280;51427;-27.442;153.014;2023-03-01T04:28:34;100437.72;;;29.75
64916;BMP280;51427;-27.442;153.014;2023-03-01T04:31:07;100432.66;;;29.48
64916;BMP280;51427;-27.442;153.014;2023-03-01T04:33:47;100436.81;;;29.43
64916;BMP280;51427;-27.442;153.014;2023-03-01T04:36:16;100436.03;;;30.02
64916;BMP280;51427;-27.442;153.014;2023-03-01T04:38:45;100444.16;;;29.46
64916;BMP280;51427;-27.442;153.014;2023-03-01T04:41:17;100430.72;;;30.29
64916;BMP280;51427;-27.442;153.014;2023-03-01T04:43:47;100451.66;;;29.07
64916;BMP280;51427;-27.442;153.014;2023-03-01T04:46:17;100443.09;;;29.07
64916;BMP280;51427;-27.442;153.014;2023-03-01T04:48:46;100437.03;;;29.48
64916;BMP280;51427;-27.442;153.014;2023-03-01T04:51:14;100446.63;;;28.99
64916;BMP280;51427;-27.442;153.014;2023-03-01T04:53:43;100427.50;;;29.15
64916;BMP280;51427;-27.442;153.014;2023-03-01T04:56:11;100439.09;;;29.31
64916;BMP280;51427;-27.442;153.014;2023-03-01T04:58:40;100432.91;;;29.60
64916;BMP280;51427;-27.442;153.014;2023-03-01T05:01:25;100428.44;;;29.41
64916;BMP280;51427;-27.442;153.014;2023-03-01T05:03:53;100430.84;;;29.42
64916;BMP280;51427;-27.442;153.014;2023-03-01T05:06:24;100423.06;;;29.82
64916;BMP280;51427;-27.442;153.014;2023-03-01T05:08:51;100433.00;;;29.85
64916;BMP280;51427;-27.442;153.014;2023-03-01T05:11:19;100421.34;;;29.49
64916;BMP280;51427;-27.442;153.014;2023-03-01T05:13:48;100413.97;;;29.06
64916;BMP280;51427;-27.442;153.014;2023-03-01T05:16:16;100420.31;;;29.44
64916;BMP280;51427;-27.442;153.014;2023-03-01T05:18:44;100414.75;;;29.34
64916;BMP280;51427;-27.442;153.014;2023-03-01T05:21:13;100417.56;;;29.05
64916;BMP280;51427;-27.442;153.014;2023-03-01T05:23:44;100416.31;;;29.01
64916;BMP280;51427;-27.442;153.014;2023-03-01T05:26:13;100413.00;;;28.80
64916;BMP280;51427;-27.442;153.014;2023-03-01T05:28:41;100411.84;;;28.34
64916;BMP280;51427;-27.442;153.014;2023-03-01T05:31:09;100399.03;;;29.23
64916;BMP280;51427;-27.442;153.014;2023-03-01T05:33:38;100417.06;;;28.95
64916;BMP280;51427;-27.442;153.014;2023-03-01T05:36:07;100413.34;;;28.71
64916;BMP280;51427;-27.442;153.014;2023-03-01T05:38:36;100410.09;;;28.62
64916;BMP280;51427;-27.442;153.014;2023-03-01T05:41:04;100414.38;;;28.07
64916;BMP280;51427;-27.442;153.014;2023-03-01T05:43:32;100411.19;;;28.26
64916;BMP280;51427;-27.442;153.014;2023-03-01T05:46:00;100403.97;;;28.42
64916;BMP280;51427;-27.442;153.014;2023-03-01T05:48:28;100407.25;;;27.74
64916;BMP280;51427;-27.442;153.014;2023-03-01T05:50:57;100405.94;;;28.40
64916;BMP280;51427;-27.442;153.014;2023-03-01T05:53:26;100411.25;;;28.80
64916;BMP280;51427;-27.442;153.014;2023-03-01T05:55:54;100401.75;;;28.60
64916;BMP280;51427;-27.442;153.014;2023-03-01T05:58:22;100410.13;;;28.21
64916;BMP280;51427;-27.442;153.014;2023-03-01T06:00:50;100415.38;;;28.33
64916;BMP280;51427;-27.442;153.014;2023-03-01T06:03:18;100411.31;;;28.18
64916;BMP280;51427;-27.442;153.014;2023-03-01T06:05:46;100414.03;;;28.65
64916;BMP280;51427;-27.442;153.014;2023-03-01T06:08:14;100408.22;;;28.50
64916;BMP280;51427;-27.442;153.014;2023-03-01T06:10:44;100410.91;;;28.21
64916;BMP280;51427;-27.442;153.014;2023-03-01T06:13:14;100413.44;;;27.80
64916;BMP280;51427;-27.442;153.014;2023-03-01T06:15:41;100417.06;;;27.85
64916;BMP280;51427;-27.442;153.014;2023-03-01T06:18:09;100411.94;;;28.06
64916;BMP280;51427;-27.442;153.014;2023-03-01T06:20:37;100409.34;;;28.20
64916;BMP280;51427;-27.442;153.014;2023-03-01T06:23:04;100420.84;;;28.24
64916;BMP280;51427;-27.442;153.014;2023-03-01T06:25:32;100421.19;;;28.00
64916;BMP280;51427;-27.442;153.014;2023-03-01T06:27:59;100421.91;;;27.94
64916;BMP280;51427;-27.442;153.014;2023-03-01T06:30:27;100412.38;;;27.74
64916;BMP280;51427;-27.442;153.014;2023-03-01T06:32:56;100418.88;;;27.56
64916;BMP280;51427;-27.442;153.014;2023-03-01T06:35:27;100403.53;;;27.77
64916;BMP280;51427;-27.442;153.014;2023-03-01T06:38:02;100415.72;;;27.54
64916;BMP280;51427;-27.442;153.014;2023-03-01T06:40:31;100407.19;;;27.68
64916;BMP280;51427;-27.442;153.014;2023-03-01T06:42:58;100404.53;;;27.61
64916;BMP280;51427;-27.442;153.014;2023-03-01T06:45:26;100408.28;;;27.30
64916;BMP280;51427;-27.442;153.014;2023-03-01T06:48:04;100408.88;;;27.32
64916;BMP280;51427;-27.442;153.014;2023-03-01T06:50:32;100417.03;;;27.21
64916;BMP280;51427;-27.442;153.014;2023-03-01T06:53:00;100414.28;;;27.37
64916;BMP280;51427;-27.442;153.014;2023-03-01T06:55:28;100416.94;;;27.29
64916;BMP280;51427;-27.442;153.014;2023-03-01T06:57:58;100407.09;;;27.47
64916;BMP280;51427;-27.442;153.014;2023-03-01T07:00:26;100416.13;;;27.57
64916;BMP280;51427;-27.442;153.014;2023-03-01T07:02:54;100414.34;;;27.43
64916;BMP280;51427;-27.442;153.014;2023-03-01T07:05:22;100420.84;;;27.25
64916;BMP280;51427;-27.442;153.014;2023-03-01T07:07:49;100416.00;;;27.16
64916;BMP280;51427;-27.442;153.014;2023-03-01T07:10:17;100411.56;;;27.10
64916;BMP280;51427;-27.442;153.014;2023-03-01T07:12:45;100417.84;;;27.07
64916;BMP280;51427;-27.442;153.014;2023-03-01T07:15:13;100414.13;;;27.24
64916;BMP280;51427;-27.442;153.014;2023-03-01T07:17:41;100417.22;;;27.20
64916;BMP280;51427;-27.442;153.014;2023-03-01T07:20:11;100429.69;;;26.94
64916;BMP280;51427;-27.442;153.014;2023-03-01T07:22:42;100432.28;;;26.94
64916;BMP280;51427;-27.442;153.014;2023-03-01T07:25:10;100431.06;;;26.82
64916;BMP280;51427;-27.442;153.014;2023-03-01T07:27:38;100428.63;;;26.89
64916;BMP280;51427;-27.442;153.014;2023-03-01T07:30:06;100420.19;;;26.80
64916;BMP280;51427;-27.442;153.014;2023-03-01T07:32:34;100422.78;;;26.94
64916;BMP280;51427;-27.442;153.014;2023-03-01T07:35:02;100423.41;;;26.96
64916;BMP280;51427;-27.442;153.014;2023-03-01T07:37:29;100433.22;;;26.93
64916;BMP280;51427;-27.442;153.014;2023-03-01T07:39:57;100432.44;;;26.92
64916;BMP280;51427;-27.442;153.014;2023-03-01T07:42:25;100431.50;;;26.86
64916;BMP280;51427;-27.442;153.014;2023-03-01T07:44:52;100434.22;;;26.70
64916;BMP280;51427;-27.442;153.014;2023-03-01T07:47:20;100432.69;;;26.61
64916;BMP280;51427;-27.442;153.014;2023-03-01T07:49:47;100432.06;;;26.59
64916;BMP280;51427;-27.442;153.014;2023-03-01T07:52:15;100446.38;;;26.53
64916;BMP280;51427;-27.442;153.014;2023-03-01T07:54:45;100443.03;;;26.53
64916;BMP280;51427;-27.442;153.014;2023-03-01T07:57:13;100455.91;;;26.45
64916;BMP280;51427;-27.442;153.014;2023-03-01T07:59:41;100451.56;;;26.45
64916;BMP280;51427;-27.442;153.014;2023-03-01T08:02:09;100450.78;;;26.45
64916;BMP280;51427;-27.442;153.014;2023-03-01T08:04:37;100452.28;;;26.40
64916;BMP280;51427;-27.442;153.014;2023-03-01T08:07:05;100453.59;;;26.36
64916;BMP280;51427;-27.442;153.014;2023-03-01T08:09:35;100453.47;;;26.29
64916;BMP280;51427;-27.442;153.014;2023-03-01T08:12:05;100455.06;;;26.22
64916;BMP280;51427;-27.442;153.014;2023-03-01T08:14:34;100452.50;;;26.30
64916;BMP280;51427;-27.442;153.014;2023-03-01T08:17:01;100456.03;;;26.29
64916;BMP280;51427;-27.442;153.014;2023-03-01T08:19:30;100465.00;;;26.25
64916;BMP280;51427;-27.442;153.014;2023-03-01T08:21:58;100456.22;;;26.20
64916;BMP280;51427;-27.442;153.014;2023-03-01T08:24:26;100462.50;;;26.17
64916;BMP280;51427;-27.442;153.014;2023-03-01T08:26:57;100465.06;;;26.17
64916;BMP280;51427;-27.442;153.014;2023-03-01T08:29:25;100468.13;;;26.13
64916;BMP280;51427;-27.442;153.014;2023-03-01T08:31:53;100462.88;;;26.06
64916;BMP280;51427;-27.442;153.014;2023-03-01T08:34:20;100484.72;;;26.02
64916;BMP280;51427;-27.442;153.014;2023-03-01T08:36:48;100485.16;;;26.06
64916;BMP280;51427;-27.442;153.014;2023-03-01T08:39:21;100502.94;;;26.07
64916;BMP280;51427;-27.442;153.014;2023-03-01T08:41:49;100502.00;;;26.00
64916;BMP280;51427;-27.442;153.014;2023-03-01T08:44:16;100508.13;;;25.99
64916;BMP280;51427;-27.442;153.014;2023-03-01T08:46:45;100508.75;;;26.01
64916;BMP280;51427;-27.442;153.014;2023-03-01T08:49:15;100508.13;;;25.99
64916;BMP280;51427;-27.442;153.014;2023-03-01T08:51:43;100510.34;;;26.02
64916;BMP280;51427;-27.442;153.014;2023-03-01T08:54:14;100520.06;;;26.15
64916;BMP280;51427;-27.442;153.014;2023-03-01T08:56:42;100520.59;;;26.02
64916;BMP280;51427;-27.442;153.014;2023-03-01T08:59:11;100511.81;;;25.97
64916;BMP280;51427;-27.442;153.014;2023-03-01T09:01:40;100518.09;;;25.95
64916;BMP280;51427;-27.442;153.014;2023-03-01T09:04:14;100521.91;;;25.98
64916;BMP280;51427;-27.442;153.014;2023-03-01T09:06:42;100527.81;;;25.99
64916;BMP280;51427;-27.442;153.014;2023-03-01T09:09:23;100534.44;;;25.94
64916;BMP280;51427;-27.442;153.014;2023-03-01T09:11:51;100537.00;;;25.94
64916;BMP280;51427;-27.442;153.014;2023-03-01T09:14:18;100534.19;;;26.11
64916;BMP280;51427;-27.442;153.014;2023-03-01T09:16:49;100547.50;;;26.06
64916;BMP280;51427;-27.442;153.014;2023-03-01T09:19:17;100541.44;;;25.99
64916;BMP280;51427;-27.442;153.014;2023-03-01T09:21:44;100546.53;;;26.07
64916;BMP280;51427;-27.442;153.014;2023-03-01T09:24:23;100559.03;;;26.10
64916;BMP280;51427;-27.442;153.014;2023-03-01T09:26:54;100563.25;;;25.96
64916;BMP280;51427;-27.442;153.014;2023-03-01T09:29:22;100565.69;;;25.89
64916;BMP280;51427;-27.442;153.014;2023-03-01T09:31:50;100563.41;;;25.94
64916;BMP280;51427;-27.442;153.014;2023-03-01T09:34:22;100565.09;;;25.79
64916;BMP280;51427;-27.442;153.014;2023-03-01T09:36:50;100566.09;;;26.00
64916;BMP280;51427;-27.442;153.014;2023-03-01T09:39:18;100572.56;;;25.97
64916;BMP280;51427;-27.442;153.014;2023-03-01T09:41:54;100581.25;;;25.80
64916;BMP280;51427;-27.442;153.014;2023-03-01T09:47:01;100598.53;;;25.94
64916;BMP280;51427;-27.442;153.014;2023-03-01T09:49:31;100593.91;;;25.81
64916;BMP280;51427;-27.442;153.014;2023-03-01T09:52:19;100593.47;;;25.70
64916;BMP280;51427;-27.442;153.014;2023-03-01T09:54:51;100596.63;;;25.80
64916;BMP280;51427;-27.442;153.014;2023-03-01T09:57:36;100594.41;;;25.77
64916;BMP280;51427;-27.442;153.014;2023-03-01T10:02:58;100611.38;;;25.86
64916;BMP280;51427;-27.442;153.014;2023-03-01T10:06:04;100641.25;;;26.17
64916;BMP280;51427;-27.442;153.014;2023-03-01T10:11:22;100741.66;;;26.60
64916;BMP280;51427;-27.442;153.014;2023-03-01T10:16:48;100738.50;;;26.42
64916;BMP280;51427;-27.442;153.014;2023-03-01T10:19:40;100753.31;;;26.32
64916;BMP280;51427;-27.442;153.014;2023-03-01T10:22:21;100767.28;;;26.76
64916;BMP280;51427;-27.442;153.014;2023-03-01T10:24:51;100776.47;;;26.62
64916;BMP280;51427;-27.442;153.014;2023-03-01T10:27:59;100763.72;;;26.15
64916;BMP280;51427;-27.442;153.014;2023-03-01T10:30:44;100772.56;;;25.89
64916;BMP280;51427;-27.442;153.014;2023-03-01T10:33:21;100778.63;;;25.96
64916;BMP280;51427;-27.442;153.014;2023-03-01T10:35:50;100758.13;;;25.80
64916;BMP280;51427;-27.442;153.014;2023-03-01T10:38:19;100749.00;;;25.77
64916;BMP280;51427;-27.442;153.014;2023-03-01T10:41:04;100738.56;;;25.79
64916;BMP280;51427;-27.442;153.014;2023-03-01T10:43:50;100747.56;;;25.83
64916;BMP280;51427;-27.442;153.014;2023-03-01T10:49:20;100744.50;;;26.03
64916;BMP280;51427;-27.442;153.014;2023-03-01T10:51:51;100728.97;;;25.89
64916;BMP280;51427;-27.442;153.014;2023-03-01T10:54:27;100727.22;;;25.81
64916;BMP280;51427;-27.442;153.014;2023-03-01T10:57:01;100735.69;;;25.90
64916;BMP280;51427;-27.442;153.014;2023-03-01T10:59:37;100734.75;;;25.83
64916;BMP280;51427;-27.442;153.014;2023-03-01T11:04:36;100748.19;;;25.85
64916;BMP280;51427;-27.442;153.014;2023-03-01T11:07:03;100747.88;;;25.72
64916;BMP280;51427;-27.442;153.014;2023-03-01T11:09:35;100740.34;;;25.70
64916;BMP280;51427;-27.442;153.014;2023-03-01T11:12:13;100721.06;;;25.27
64916;BMP280;51427;-27.442;153.014;2023-03-01T11:14:53;100694.56;;;24.95
64916;BMP280;51427;-27.442;153.014;2023-03-01T11:17:31;100676.28;;;24.74
64916;BMP280;51427;-27.442;153.014;2023-03-01T11:22:52;100630.97;;;24.58
64916;BMP280;51427;-27.442;153.014;2023-03-01T11:25:30;100613.81;;;24.51
64916;BMP280;51427;-27.442;153.014;2023-03-01T11:28:00;100592.09;;;24.55
64916;BMP280;51427;-27.442;153.014;2023-03-01T11:30:40;100591.81;;;24.66
64916;BMP280;51427;-27.442;153.014;2023-03-01T11:38:39;100637.63;;;25.01
64916;BMP280;51427;-27.442;153.014;2023-03-01T11:54:18;100641.53;;;24.71
64916;BMP280;51427;-27.442;153.014;2023-03-01T11:57:00;100645.88;;;24.79
64916;BMP280;51427;-27.442;153.014;2023-03-01T11:59:41;100663.97;;;24.85
64916;BMP280;51427;-27.442;153.014;2023-03-01T12:08:07;100698.09;;;24.94
64916;BMP280;51427;-27.442;153.014;2023-03-01T12:16:38;100789.59;;;25.33
64916;BMP280;51427;-27.442;153.014;2023-03-01T12:38:50;100787.03;;;24.92
64916;BMP280;51427;-27.442;153.014;2023-03-01T12:49:56;100797.38;;;25.07
64916;BMP280;51427;-27.442;153.014;2023-03-01T12:52:35;100800.13;;;24.89
64916;BMP280;51427;-27.442;153.014;2023-03-01T12:58:16;100772.97;;;24.55
64916;BMP280;51427;-27.442;153.014;2023-03-01T13:09:33;100757.50;;;24.39
64916;BMP280;51427;-27.442;153.014;2023-03-01T13:12:02;100763.13;;;24.75
64916;BMP280;51427;-27.442;153.014;2023-03-01T13:17:00;100780.16;;;24.59
64916;BMP280;51427;-27.442;153.014;2023-03-01T13:19:31;100780.66;;;24.62
64916;BMP280;51427;-27.442;153.014;2023-03-01T13:22:25;100784.47;;;24.92
64916;BMP280;51427;-27.442;153.014;2023-03-01T13:25:10;100795.94;;;25.13
64916;BMP280;51427;-27.442;153.014;2023-03-01T13:27:40;100799.59;;;25.10
64916;BMP280;51427;-27.442;153.014;2023-03-01T13:34:03;100800.75;;;24.83
64916;BMP280;51427;-27.442;153.014;2023-03-01T13:36:10;100802.63;;;24.48
64916;BMP280;51427;-27.442;153.014;2023-03-01T13:41:47;100797.00;;;24.02
64916;BMP280;51427;-27.442;153.014;2023-03-01T13:46:56;100823.38;;;23.85
64916;BMP280;51427;-27.442;153.014;2023-03-01T13:49:31;100827.47;;;23.78
64916;BMP280;51427;-27.442;153.014;2023-03-01T13:52:02;100824.59;;;24.15
64916;BMP280;51427;-27.442;153.014;2023-03-01T13:54:33;100825.22;;;24.52
64916;BMP280;51427;-27.442;153.014;2023-03-01T13:57:02;100824.31;;;24.61
64916;BMP280;51427;-27.442;153.014;2023-03-01T13:59:30;100814.13;;;24.69
64916;BMP280;51427;-27.442;153.014;2023-03-01T14:02:00;100804.16;;;24.58
64916;BMP280;51427;-27.442;153.014;2023-03-01T14:04:31;100811.16;;;24.56
64916;BMP280;51427;-27.442;153.014;2023-03-01T14:07:21;100819.53;;;24.66
64916;BMP280;51427;-27.442;153.014;2023-03-01T14:09:59;100815.56;;;24.46
64916;BMP280;51427;-27.442;153.014;2023-03-01T14:12:54;100806.88;;;24.31
64916;BMP280;51427;-27.442;153.014;2023-03-01T14:16:02;100819.06;;;24.45
64916;BMP280;51427;-27.442;153.014;2023-03-01T14:18:46;100813.25;;;24.35
64916;BMP280;51427;-27.442;153.014;2023-03-01T14:21:16;100816.25;;;24.31
64916;BMP280;51427;-27.442;153.014;2023-03-01T14:23:44;100807.06;;;24.38
64916;BMP280;51427;-27.442;153.014;2023-03-01T14:26:13;100801.84;;;24.47
64916;BMP280;51427;-27.442;153.014;2023-03-01T14:28:48;100805.03;;;24.49
64916;BMP280;51427;-27.442;153.014;2023-03-01T14:31:37;100802.25;;;24.35
64916;BMP280;51427;-27.442;153.014;2023-03-01T14:34:23;100800.31;;;24.37
64916;BMP280;51427;-27.442;153.014;2023-03-01T14:36:53;100792.00;;;24.35
64916;BMP280;51427;-27.442;153.014;2023-03-01T14:39:25;100778.56;;;24.58
64916;BMP280;51427;-27.442;153.014;2023-03-01T14:41:53;100778.00;;;24.47
64916;BMP280;51427;-27.442;153.014;2023-03-01T14:44:23;100786.44;;;24.39
64916;BMP280;51427;-27.442;153.014;2023-03-01T14:46:55;100772.31;;;24.60
64916;BMP280;51427;-27.442;153.014;2023-03-01T14:49:30;100756.22;;;24.68
64916;BMP280;51427;-27.442;153.014;2023-03-01T14:52:05;100763.22;;;24.58
64916;BMP280;51427;-27.442;153.014;2023-03-01T14:57:04;100773.00;;;24.62
64916;BMP280;51427;-27.442;153.014;2023-03-01T14:59:34;100772.25;;;24.78
64916;BMP280;51427;-27.442;153.014;2023-03-01T15:02:02;100771.59;;;24.76
64916;BMP280;51427;-27.442;153.014;2023-03-01T15:04:30;100783.31;;;24.78
64916;BMP280;51427;-27.442;153.014;2023-03-01T15:07:00;100782.66;;;24.76
64916;BMP280;51427;-27.442;153.014;2023-03-01T15:09:33;100774.16;;;24.76
64916;BMP280;51427;-27.442;153.014;2023-03-01T15:14:58;100776.84;;;24.66
64916;BMP280;51427;-27.442;153.014;2023-03-01T15:17:34;100779.72;;;24.71
64916;BMP280;51427;-27.442;153.014;2023-03-01T15:20:06;100774.63;;;24.71
64916;BMP280;51427;-27.442;153.014;2023-03-01T15:22:36;100776.34;;;24.63
64916;BMP280;51427;-27.442;153.014;2023-03-01T15:25:04;100767.06;;;24.62
64916;BMP280;51427;-27.442;153.014;2023-03-01T15:27:32;100764.94;;;24.58
64916;BMP280;51427;-27.442;153.014;2023-03-01T15:30:01;100776.47;;;24.54
64916;BMP280;51427;-27.442;153.014;2023-03-01T15:32:35;100765.28;;;24.55
64916;BMP280;51427;-27.442;153.014;2023-03-01T15:36:01;100761.84;;;24.46
64916;BMP280;51427;-27.442;153.014;2023-03-01T15:43:52;100735.44;;;24.38
64916;BMP280;51427;-27.442;153.014;2023-03-01T15:46:30;100719.50;;;24.26